Time;durP1;ratioP1;P1;durP2;ratioP2;P2;SDS_P1;SDS_P2;PMS_P1;PMS_P2;Temp;Humidity;BMP_temperature;BMP_pressure;BME280_temperature;BME280_humidity;BME280_pressure;Samples;Min_cycle;Max_cycle;Signal;HPM_P1;HPM_P2
2022/12/11 00:01:54;;;;;;;1.90;1.30;;;;;;;1.28;43.44;90769.22;5053972;28;20046;-73
2022/12/11 00:04:19;;;;;;;1.95;1.30;;;;;;;1.25;42.77;90744.00;5020633;28;20052;-73
2022/12/11 00:06:49;;;;;;;3.13;1.77;;;;;;;1.24;43.45;90753.56;5052798;28;20148;-73
2022/12/11 00:09:19;;;;;;;2.78;1.40;;;;;;;1.20;43.43;90749.22;5035327;28;20068;-73
2022/12/11 00:11:45;;;;;;;1.70;1.17;;;;;;;1.19;42.85;90751.03;5052860;28;20102;-73
2022/12/11 00:14:11;;;;;;;2.47;1.48;;;;;;;1.13;43.53;90746.19;5049466;28;20024;-73
2022/12/11 00:16:37;;;;;;;2.28;1.35;;;;;;;1.19;41.75;90755.38;5072714;28;20115;-73
2022/12/11 00:19:03;;;;;;;3.95;1.67;;;;;;;1.24;42.49;90753.56;5054844;28;20190;-73
2022/12/11 00:21:29;;;;;;;3.13;1.48;;;;;;;1.22;42.27;90754.88;5072774;28;20074;-74
2022/12/11 00:23:55;;;;;;;1.70;1.30;;;;;;;1.16;42.91;90738.66;5065533;28;20045;-73
2022/12/11 00:26:20;;;;;;;1.63;1.20;;;;;;;1.09;42.89;90748.53;5052656;28;20487;-73
2022/12/11 00:28:46;;;;;;;2.38;1.50;;;;;;;1.12;43.11;90744.63;5052431;28;20037;-73
2022/12/11 00:31:14;;;;;;;1.80;1.20;;;;;;;1.14;42.27;90735.59;5032328;28;20487;-73
2022/12/11 00:33:41;;;;;;;1.65;1.20;;;;;;;1.20;41.23;90754.38;5052450;28;20044;-73
2022/12/11 00:36:13;;;;;;;2.75;1.48;;;;;;;1.14;41.99;90752.88;5034030;28;20061;-73
2022/12/11 00:38:38;;;;;;;3.00;1.50;;;;;;;1.18;41.90;90748.72;5066290;28;20178;-73
2022/12/11 00:41:04;;;;;;;2.22;1.30;;;;;;;1.27;39.96;90754.81;5054610;28;20381;-74
2022/12/11 00:43:30;;;;;;;2.28;1.30;;;;;;;1.27;40.80;90752.22;5037749;28;20031;-73
2022/12/11 00:45:57;;;;;;;3.85;1.80;;;;;;;1.28;40.70;90742.69;5036557;28;20242;-73
2022/12/11 00:48:22;;;;;;;2.15;1.48;;;;;;;1.24;41.59;90747.63;5034477;28;20037;-73
2022/12/11 00:50:48;;;;;;;1.70;1.35;;;;;;;1.20;42.40;90762.09;5017635;28;20033;-73
2022/12/11 00:53:13;;;;;;;1.38;1.20;;;;;;;1.12;41.07;90762.66;5052539;28;20065;-73
2022/12/11 00:55:41;;;;;;;2.13;1.38;;;;;;;1.06;42.73;90758.59;5045306;28;20041;-73
2022/12/11 00:58:08;;;;;;;2.47;1.42;;;;;;;0.96;42.70;90759.44;5054267;28;20124;-73
2022/12/11 01:00:34;;;;;;;4.60;1.95;;;;;;;1.06;41.75;90774.84;5071799;28;20044;-73
2022/12/11 01:03:00;;;;;;;2.97;1.55;;;;;;;1.08;40.71;90764.25;5054074;28;20037;-73
2022/12/11 01:05:25;;;;;;;2.28;1.23;;;;;;;0.98;42.05;90759.94;5072135;28;20382;-73
2022/12/11 01:07:51;;;;;;;2.50;1.50;;;;;;;1.02;40.61;90759.13;5051378;28;20052;-73
2022/12/11 01:10:22;;;;;;;3.40;1.55;;;;;;;0.98;41.21;90752.22;5071924;28;20482;-73
2022/12/11 01:13:03;;;;;;;2.13;1.30;;;;;;;0.81;41.36;90762.88;5071727;28;20520;-73
2022/12/11 01:15:32;;;;;;;2.90;1.38;;;;;;;0.54;42.63;90735.78;5070905;28;20037;-73
2022/12/11 01:17:57;;;;;;;3.38;1.52;;;;;;;0.69;42.52;90760.66;5053016;28;20502;-73
2022/12/11 01:20:24;;;;;;;1.92;1.25;;;;;;;0.90;39.79;90743.28;5054383;28;20044;-73
2022/12/11 01:22:58;;;;;;;2.63;1.58;;;;;;;0.97;40.68;90754.03;5072119;28;20066;-73
2022/12/11 01:25:24;;;;;;;2.33;1.48;;;;;;;0.88;40.77;90765.16;5054019;28;20483;-73
2022/12/11 01:27:51;;;;;;;2.35;1.55;;;;;;;0.89;41.58;90754.59;5065241;28;20025;-73
2022/12/11 01:30:18;;;;;;;2.38;1.30;;;;;;;0.73;41.45;90774.53;5033745;28;20033;-73
2022/12/11 01:32:43;;;;;;;2.83;1.60;;;;;;;0.74;41.76;90767.56;5033461;28;20404;-73
2022/12/11 01:35:10;;;;;;;3.58;1.50;;;;;;;0.68;42.21;90768.66;5029224;28;20039;-74
2022/12/11 01:37:36;;;;;;;2.35;1.48;;;;;;;0.63;42.41;90769.44;5069440;28;20075;-74
2022/12/11 01:40:03;;;;;;;2.78;1.70;;;;;;;0.63;41.90;90759.13;5037066;28;20052;-73
2022/12/11 01:42:29;;;;;;;4.40;1.60;;;;;;;0.66;42.04;90752.72;5071240;28;20020;-73
2022/12/11 01:45:21;;;;;;;4.82;1.23;;;;;;;0.67;42.48;90769.69;5071136;28;20039;-73
2022/12/11 01:47:48;;;;;;;1.92;1.30;;;;;;;0.67;40.76;90782.56;5052601;28;20041;-73
2022/12/11 01:50:14;;;;;;;3.20;1.52;;;;;;;0.78;40.53;90776.31;5053537;28;20036;-73
2022/12/11 01:52:43;;;;;;;2.15;1.40;;;;;;;0.72;41.20;90765.28;5016207;28;20045;-73
2022/12/11 01:55:09;;;;;;;2.20;1.55;;;;;;;0.70;41.68;90782.03;5033582;28;20033;-73
2022/12/11 01:57:37;;;;;;;1.92;1.23;;;;;;;0.60;41.35;90780.28;5033149;28;20483;-73
2022/12/11 02:00:03;;;;;;;3.00;1.50;;;;;;;0.66;41.84;90775.88;5045752;28;20094;-73
2022/12/11 02:02:38;;;;;;;3.92;1.60;;;;;;;0.68;41.21;90771.25;5054566;28;20080;-73
2022/12/11 02:05:05;;;;;;;2.85;1.60;;;;;;;0.64;41.45;90780.53;5070949;28;20065;-73
2022/12/11 02:07:45;;;;;;;2.72;1.60;;;;;;;0.53;41.29;90783.16;5070649;28;20032;-73
2022/12/11 02:10:11;;;;;;;2.40;1.48;;;;;;;0.49;42.03;90784.72;5051553;28;20082;-73
2022/12/11 02:13:03;;;;;;;2.25;1.40;;;;;;;0.46;41.30;90799.94;5069895;28;20544;-73
2022/12/11 02:15:47;;;;;;;2.53;1.50;;;;;;;0.52;41.86;90793.72;5052971;28;20119;-73
2022/12/11 02:18:21;;;;;;;2.67;1.65;;;;;;;0.56;40.39;90789.56;5052657;28;20040;-73
2022/12/11 02:20:57;;;;;;;2.88;1.70;;;;;;;0.62;40.14;90791.09;5045080;28;20044;-73
2022/12/11 02:23:56;;;;;;;1.98;1.38;;;;;;;0.69;39.29;90799.28;5050662;28;20403;-73
2022/12/11 02:26:47;;;;;;;3.60;1.55;;;;;;;0.57;41.19;90799.63;5050568;28;20104;-73
2022/12/11 02:29:20;;;;;;;2.05;1.35;;;;;;;0.60;39.42;90791.34;5050545;28;20044;-73
2022/12/11 02:31:59;;;;;;;3.03;1.60;;;;;;;0.60;39.72;90796.50;5060262;28;20466;-73
2022/12/11 02:34:42;;;;;;;1.17;1.08;;;;;;;0.71;39.92;90796.44;5052136;28;20406;-73
2022/12/11 02:37:13;;;;;;;1.17;1.08;;;;;;;0.76;39.52;90799.75;5071385;28;20305;-73
2022/12/11 02:39:42;;;;;;;3.40;1.65;;;;;;;0.55;40.06;90793.97;5070033;28;21429;-73
2022/12/11 02:42:10;;;;;;;1.92;1.25;;;;;;;0.68;38.71;90797.75;5051581;28;20032;-73
2022/12/11 02:44:37;;;;;;;2.50;1.50;;;;;;;0.81;38.55;90806.69;5070221;28;20058;-73
2022/12/11 02:47:07;;;;;;;1.98;1.25;;;;;;;0.73;38.73;90809.84;5052032;28;20498;-73
2022/12/11 02:49:33;;;;;;;2.80;1.50;;;;;;;0.60;39.37;90822.25;5034704;28;20051;-73
2022/12/11 02:52:02;;;;;;;1.83;1.30;;;;;;;0.71;37.99;90829.94;5034776;28;20036;-72
2022/12/11 02:54:32;;;;;;;3.20;1.70;;;;;;;0.65;39.48;90829.19;5070108;28;20040;-73
2022/12/11 02:57:04;;;;;;;1.90;1.30;;;;;;;0.72;38.45;90810.84;5069901;28;20454;-73
2022/12/11 02:59:42;;;;;;;2.10;1.42;;;;;;;0.52;39.21;90812.53;5069418;28;20036;-73
2022/12/11 03:02:11;;;;;;;3.28;1.60;;;;;;;0.40;39.70;90833.41;5065408;28;20064;-73
2022/12/11 03:04:37;;;;;;;1.63;1.30;;;;;;;0.66;38.36;90814.53;5069984;28;20024;-73
2022/12/11 03:07:16;;;;;;;3.45;1.60;;;;;;;0.64;38.28;90819.16;5052054;28;20102;-73
2022/12/11 03:09:46;;;;;;;1.98;1.33;;;;;;;0.59;39.31;90804.50;5052043;28;20040;-73
2022/12/11 03:12:18;;;;;;;2.35;1.48;;;;;;;0.45;39.56;90799.19;5051162;28;20074;-73
2022/12/11 03:14:44;;;;;;;3.10;1.60;;;;;;;0.39;38.61;90795.09;5069996;28;20044;-73
2022/12/11 03:17:13;;;;;;;1.48;1.20;;;;;;;0.56;37.09;90800.66;5052104;28;20043;-73
2022/12/11 03:19:46;;;;;;;2.72;1.48;;;;;;;0.53;39.41;90806.34;5069732;28;20032;-73
2022/12/11 03:22:19;;;;;;;2.47;1.50;;;;;;;0.40;39.33;90799.94;5052143;28;20048;-73
2022/12/11 03:24:51;;;;;;;2.65;1.60;;;;;;;0.43;38.51;90815.91;5050995;28;20497;-73
2022/12/11 03:27:30;;;;;;;2.58;1.52;;;;;;;0.40;39.92;90806.91;5069919;28;20050;-73
2022/12/11 03:30:10;;;;;;;4.03;1.35;;;;;;;0.39;38.07;90801.00;5069428;28;20115;-72
2022/12/11 03:33:19;;;;;;;3.03;1.60;;;;;;;0.35;38.69;90809.50;5069728;28;20440;-72
2022/12/11 03:35:51;;;;;;;5.18;1.70;;;;;;;0.33;38.58;90827.03;5000582;28;20044;-73
2022/12/11 03:38:42;;;;;;;2.92;1.52;;;;;;;0.26;39.41;90841.97;5051841;28;20056;-72
2022/12/11 03:41:11;;;;;;;3.50;1.33;;;;;;;0.33;38.67;90817.50;5051505;28;20033;-73
2022/12/11 03:43:39;;;;;;;3.00;1.63;;;;;;;0.47;38.70;90816.91;5050149;28;20056;-73
2022/12/11 03:46:08;;;;;;;3.13;1.60;;;;;;;0.38;39.30;90830.38;5068642;28;20024;-73
2022/12/11 03:48:37;;;;;;;2.45;1.50;;;;;;;0.18;39.79;90820.91;5069529;28;20126;-73
2022/12/11 03:51:06;;;;;;;2.47;1.50;;;;;;;0.17;40.23;90818.59;5069301;28;20398;-73
2022/12/11 03:53:34;;;;;;;4.22;1.88;;;;;;;0.23;38.12;90816.78;5051343;28;20510;-73
2022/12/11 03:56:02;;;;;;;3.45;1.70;;;;;;;0.16;39.49;90827.38;5032936;28;20502;-73
2022/12/11 03:58:29;;;;;;;2.67;1.40;;;;;;;0.01;39.13;90823.03;5069420;28;20036;-73
2022/12/11 04:00:54;;;;;;;2.55;1.50;;;;;;;0.08;39.15;90831.22;5053662;28;20023;-73
2022/12/11 04:03:20;;;;;;;2.60;1.42;;;;;;;0.10;39.62;90836.88;5053859;28;20106;-73
2022/12/11 04:05:49;;;;;;;2.95;1.63;;;;;;;0.22;39.12;90830.66;5037832;28;20075;-73
2022/12/11 04:08:16;;;;;;;2.70;1.58;;;;;;;0.29;36.98;90836.31;5038254;28;20466;-73
2022/12/11 04:10:41;;;;;;;2.42;1.50;;;;;;;0.27;39.19;90833.22;5073033;28;20040;-73
2022/12/11 04:13:08;;;;;;;1.88;1.23;;;;;;;0.41;36.98;90841.94;5054112;28;20048;-73
2022/12/11 04:15:34;;;;;;;2.28;1.45;;;;;;;0.26;38.13;90858.19;5054375;28;20036;-73
2022/12/11 04:26:16;;;;;;;2.58;1.50;;;;;;;0.04;38.73;90850.78;5071695;28;20131;-73
2022/12/11 04:28:43;;;;;;;3.20;1.75;;;;;;;-0.01;39.35;90853.38;5072933;28;20084;-73
2022/12/11 04:31:20;;;;;;;3.42;1.67;;;;;;;0.06;37.84;90864.16;5054306;28;20447;-73
2022/12/11 04:33:47;;;;;;;2.67;1.60;;;;;;;0.13;37.78;90851.03;5051851;28;20040;-73
2022/12/11 04:36:13;;;;;;;3.65;1.60;;;;;;;0.12;38.77;90852.84;5071520;28;20127;-73
2022/12/11 04:38:39;;;;;;;2.70;1.58;;;;;;;0.04;39.49;90848.22;5038261;28;20031;-73
2022/12/11 04:41:10;;;;;;;3.28;1.60;;;;;;;0.26;37.45;90841.97;5054393;28;20055;-73
2022/12/11 04:43:36;;;;;;;3.70;1.73;;;;;;;0.19;37.28;90853.31;5072172;28;20036;-73
2022/12/11 04:46:12;;;;;;;2.17;1.45;;;;;;;0.04;37.90;90845.66;5071394;28;20056;-73
2022/12/11 04:48:38;;;;;;;2.03;1.33;;;;;;;0.11;38.00;90855.66;5072262;28;20459;-73
2022/12/11 04:51:05;;;;;;;3.30;1.58;;;;;;;-0.01;37.78;90853.38;5054073;28;20036;-73
2022/12/11 04:53:31;;;;;;;3.15;1.60;;;;;;;0.06;36.96;90864.16;5067420;28;20169;-73
2022/12/11 04:55:56;;;;;;;3.83;1.83;;;;;;;0.04;37.08;90858.50;5054207;28;20557;-73
2022/12/11 04:58:24;;;;;;;2.75;1.60;;;;;;;0.29;36.43;90849.16;5053476;28;20036;-73
2022/12/11 05:00:50;;;;;;;3.20;1.70;;;;;;;0.11;37.76;90851.31;5038038;28;20428;-73
2022/12/11 05:03:15;;;;;;;2.97;1.80;;;;;;;0.24;34.66;90838.91;5054031;28;20115;-73
2022/12/11 05:05:50;;;;;;;3.17;1.60;;;;;;;0.16;36.37;90843.56;5071323;28;20044;-73
2022/12/11 05:08:20;;;;;;;2.80;1.60;;;;;;;0.01;37.43;90832.56;5070316;28;20963;-73
2022/12/11 05:10:58;;;;;;;2.70;1.58;;;;;;;-0.05;37.01;90832.53;5071811;28;20111;-74
2022/12/11 05:13:25;;;;;;;3.20;1.70;;;;;;;-0.19;37.39;90835.94;5053390;28;20037;-74
2022/12/11 05:15:51;;;;;;;2.83;1.58;;;;;;;-0.28;36.96;90843.41;5053977;28;20398;-74
2022/12/11 05:18:17;;;;;;;2.95;1.70;;;;;;;-0.14;36.47;90834.13;5052539;28;20039;-74
2022/12/11 05:20:42;;;;;;;2.65;1.60;;;;;;;-0.22;36.96;90842.38;5054067;28;20112;-73
2022/12/11 05:23:08;;;;;;;1.33;1.20;;;;;;;-0.14;36.62;90836.69;5071560;28;20028;-73
2022/12/11 05:25:33;;;;;;;3.45;1.67;;;;;;;-0.12;36.27;90852.63;5071578;28;20044;-73
2022/12/11 05:27:59;;;;;;;2.55;1.63;;;;;;;-0.11;35.97;90843.91;5070490;28;20345;-73
2022/12/11 05:30:25;;;;;;;3.17;1.70;;;;;;;-0.29;36.70;90852.16;5037172;28;20029;-73
2022/12/11 05:32:51;;;;;;;3.28;1.70;;;;;;;-0.23;35.26;90841.59;5053880;28;20349;-73
2022/12/11 05:35:16;;;;;;;2.35;1.40;;;;;;;-0.19;36.59;90843.66;5036836;28;20043;-73
2022/12/11 05:37:42;;;;;;;2.10;1.40;;;;;;;-0.18;36.67;90843.41;5053087;28;20130;-73
2022/12/11 05:40:11;;;;;;;2.83;1.50;;;;;;;-0.19;35.60;90847.00;5071118;28;20324;-73
2022/12/11 05:42:37;;;;;;;1.85;1.30;;;;;;;-0.21;36.19;90834.38;5071385;28;20044;-73
2022/12/11 05:45:03;;;;;;;2.78;1.50;;;;;;;-0.31;36.53;90857.56;5053283;28;20371;-73
2022/12/11 05:47:30;;;;;;;3.28;1.80;;;;;;;-0.33;36.11;90849.34;5053517;28;20048;-74
2022/12/11 05:49:56;;;;;;;3.10;1.73;;;;;;;-0.31;36.20;90857.56;5068435;28;20032;-74
2022/12/11 05:52:21;;;;;;;2.92;1.73;;;;;;;-0.39;37.22;90837.50;5070897;28;20526;-73
2022/12/11 05:54:49;;;;;;;2.90;1.70;;;;;;;-0.39;36.27;90842.66;5036746;28;20040;-74
2022/12/11 05:57:15;;;;;;;2.78;1.60;;;;;;;-0.55;36.27;90859.88;5069587;28;20490;-74
2022/12/11 05:59:40;;;;;;;2.45;1.50;;;;;;;-0.45;35.75;90859.09;5035734;28;20052;-74
2022/12/11 06:02:06;;;;;;;3.47;1.80;;;;;;;-0.53;37.12;90857.06;5053486;28;20087;-74
2022/12/11 06:04:32;;;;;;;1.75;1.27;;;;;;;-0.49;36.32;90850.38;5071010;28;20032;-73
2022/12/11 06:06:58;;;;;;;2.85;1.60;;;;;;;-0.53;37.07;90855.25;5052945;28;20082;-74
2022/12/11 06:09:24;;;;;;;3.22;1.70;;;;;;;-0.44;35.62;90866.56;5051028;28;20028;-74
2022/12/11 06:11:49;;;;;;;3.72;1.73;;;;;;;-0.56;36.85;90873.00;5069674;28;20120;-74
2022/12/11 06:14:15;;;;;;;3.08;1.60;;;;;;;-0.60;36.42;90861.72;5051231;28;20470;-73
2022/12/11 06:16:40;;;;;;;1.23;1.10;;;;;;;-0.51;36.85;90857.59;5065233;28;20582;-72
2022/12/11 06:19:06;;;;;;;3.95;1.70;;;;;;;-0.75;37.42;90863.22;5068758;28;20029;-73
2022/12/11 06:21:32;;;;;;;3.35;1.70;;;;;;;-0.75;37.51;90865.81;5069717;28;20106;-73
2022/12/11 06:24:01;;;;;;;3.17;1.67;;;;;;;-0.56;35.55;90867.84;5046288;28;20044;-72
2022/12/11 06:26:27;;;;;;;3.33;1.70;;;;;;;-0.61;36.22;90860.91;5069246;28;20024;-72
2022/12/11 06:28:53;;;;;;;2.72;1.60;;;;;;;-0.78;36.82;90856.03;5051860;28;20040;-72
2022/12/11 06:31:19;;;;;;;2.67;1.60;;;;;;;-0.48;34.53;90865.53;5070297;28;20106;-72
2022/12/11 06:33:46;;;;;;;2.63;1.65;;;;;;;-0.56;35.96;90880.69;5077956;28;20032;-72
2022/12/11 06:36:18;;;;;;;2.65;1.58;;;;;;;-0.54;33.81;90866.59;5051267;28;20090;-72
2022/12/11 06:38:44;;;;;;;2.70;1.63;;;;;;;-0.57;34.54;90886.88;5051561;28;20131;-72
2022/12/11 06:41:10;;;;;;;5.70;1.95;;;;;;;-0.65;35.97;90886.38;5070294;28;20052;-73
2022/12/11 06:43:37;;;;;;;1.50;1.40;;;;;;;-0.47;34.31;90882.53;5055522;28;20510;-72
2022/12/11 06:46:05;;;;;;;2.83;1.65;;;;;;;-0.44;34.67;90869.13;5062779;28;20063;-72
2022/12/11 06:48:30;;;;;;;1.83;1.25;;;;;;;-0.48;34.49;90869.91;5068241;28;20028;-73
2022/12/11 06:50:56;;;;;;;2.70;1.60;;;;;;;-0.57;35.98;90886.88;5051103;28;20028;-72
2022/12/11 06:53:22;;;;;;;2.80;1.75;;;;;;;-0.65;35.15;90881.22;5049763;28;20152;-73
2022/12/11 06:55:48;;;;;;;3.53;1.70;;;;;;;-0.69;35.19;90895.63;5067649;28;20085;-72
2022/12/11 06:58:13;;;;;;;1.80;1.40;;;;;;;-0.57;35.31;90892.78;5063663;28;20444;-72
2022/12/11 07:00:39;;;;;;;3.80;1.98;;;;;;;-0.58;35.86;90901.53;5064765;28;20032;-72
2022/12/11 07:03:05;;;;;;;2.47;1.63;;;;;;;-0.67;35.71;90898.72;5047960;28;20036;-72
2022/12/11 07:05:32;;;;;;;2.33;1.52;;;;;;;-0.70;36.42;90898.44;5068731;28;20036;-72
2022/12/11 07:07:57;;;;;;;1.60;1.30;;;;;;;-0.44;35.93;90886.38;5034518;28;20091;-72
2022/12/11 07:10:23;;;;;;;3.03;1.67;;;;;;;-0.70;36.53;90906.94;5043361;28;20060;-73
2022/12/11 07:12:51;;;;;;;2.03;1.48;;;;;;;-0.54;35.89;90902.56;5051739;28;20108;-74
2022/12/11 07:15:17;;;;;;;2.50;1.45;;;;;;;-0.59;34.74;90905.13;5051914;28;20039;-74
2022/12/11 07:17:42;;;;;;;5.30;2.05;;;;;;;-0.79;36.05;90910.25;5052052;28;20024;-73
2022/12/11 07:20:09;;;;;;;3.03;1.60;;;;;;;-0.75;35.92;90906.16;5049500;28;20694;-76
2022/12/11 07:22:35;;;;;;;3.15;1.70;;;;;;;-0.80;35.88;90909.50;5055670;28;20040;-73
2022/12/11 07:25:01;;;;;;;3.70;1.70;;;;;;;-0.70;34.90;90919.78;5046917;28;20036;-73
2022/12/11 07:27:27;;;;;;;3.20;1.60;;;;;;;-0.51;35.21;90914.91;5049248;28;20032;-75
2022/12/11 07:29:54;;;;;;;3.45;1.88;;;;;;;0.50;35.45;90911.66;5043962;28;20517;-74
2022/12/11 07:32:20;;;;;;;3.28;1.85;;;;;;;2.19;32.86;90920.91;5047041;28;20070;-75
2022/12/11 07:34:47;;;;;;;3.63;1.80;;;;;;;3.67;30.52;90913.16;5050287;28;20181;-75
2022/12/11 07:37:13;;;;;;;4.28;1.85;;;;;;;4.85;30.23;90905.97;5070095;28;20123;-75
2022/12/11 07:39:38;;;;;;;3.38;1.75;;;;;;;5.85;27.65;90903.31;5052185;28;20169;-75
2022/12/11 07:42:04;;;;;;;3.22;1.88;;;;;;;6.05;24.97;90895.09;5066491;28;20023;-75
2022/12/11 07:44:30;;;;;;;3.22;1.80;;;;;;;6.19;26.05;90926.22;5065826;28;20056;-75
2022/12/11 07:46:55;;;;;;;3.08;1.80;;;;;;;7.01;23.86;90918.16;5047395;28;20040;-74
2022/12/11 07:49:21;;;;;;;3.65;1.98;;;;;;;7.63;25.48;90917.97;5050980;28;20158;-74
2022/12/11 07:51:46;;;;;;;6.40;3.10;;;;;;;7.97;22.34;90921.66;5052443;28;20112;-73
2022/12/11 07:54:15;;;;;;;3.72;2.10;;;;;;;8.61;22.61;90917.56;5060973;28;20594;-75
2022/12/11 07:56:45;;;;;;;5.50;1.98;;;;;;;9.10;22.42;90918.00;5071503;28;20093;-74
2022/12/11 07:59:11;;;;;;;3.40;2.00;;;;;;;10.19;21.35;90919.72;5062659;28;20029;-75
2022/12/11 08:01:37;;;;;;;4.03;2.10;;;;;;;10.89;21.37;90902.59;5053627;28;20031;-76
2022/12/11 08:04:07;;;;;;;4.00;1.95;;;;;;;11.68;20.79;90903.09;5063451;28;20041;-76
2022/12/11 08:06:35;;;;;;;3.25;2.05;;;;;;;11.91;19.56;90915.75;5054779;28;20151;-74
2022/12/11 08:09:04;;;;;;;3.58;2.00;;;;;;;11.78;19.87;90915.00;5073540;28;20020;-75
2022/12/11 08:11:30;;;;;;;2.70;1.60;;;;;;;11.64;19.37;90918.75;5057726;28;20024;-75
2022/12/11 08:13:58;;;;;;;4.20;2.40;;;;;;;12.02;18.56;90920.22;5053915;28;20031;-75
2022/12/11 08:16:24;;;;;;;4.45;2.50;;;;;;;12.27;18.74;90914.88;5051947;28;20116;-75
2022/12/11 08:18:50;;;;;;;5.05;2.25;;;;;;;12.30;19.31;90932.59;5048174;28;20445;-74
2022/12/11 08:21:16;;;;;;;4.13;2.40;;;;;;;12.27;18.17;90936.63;5035171;28;20036;-75
2022/12/11 08:23:42;;;;;;;3.80;1.92;;;;;;;12.80;17.37;90930.50;5060919;28;20040;-75
2022/12/11 08:26:11;;;;;;;4.78;2.40;;;;;;;13.15;18.26;90914.84;5067996;28;20028;-75
2022/12/11 08:28:37;;;;;;;2.78;1.83;;;;;;;13.13;17.19;90914.41;5071422;28;20028;-75
2022/12/11 08:31:04;;;;;;;5.85;2.40;;;;;;;13.16;17.91;90939.25;5072006;28;20397;-75
2022/12/11 08:33:30;;;;;;;4.22;2.30;;;;;;;13.85;17.75;90950.25;5072286;28;20056;-73
2022/12/11 08:35:56;;;;;;;5.63;3.33;;;;;;;13.21;17.46;90947.63;5033948;28;20040;-73
2022/12/11 08:38:22;;;;;;;4.80;2.30;;;;;;;11.58;17.60;90938.38;5068809;28;20040;-73
2022/12/11 08:40:47;;;;;;;7.60;2.58;;;;;;;11.41;19.69;90952.47;5071797;28;20024;-73
2022/12/11 08:43:13;;;;;;;9.05;3.65;;;;;;;11.62;18.22;90944.50;5061808;28;20120;-74
2022/12/11 08:45:39;;;;;;;11.73;4.20;;;;;;;10.93;19.29;90961.81;5065340;28;20052;-73
2022/12/11 08:48:05;;;;;;;4.20;2.40;;;;;;;11.77;18.64;90960.66;5069917;28;20028;-72
2022/12/11 08:50:30;;;;;;;5.35;2.58;;;;;;;12.92;18.47;90956.66;5070669;28;20072;-73
2022/12/11 08:52:57;;;;;;;6.43;3.15;;;;;;;12.77;16.36;90952.19;5043161;28;20435;-73
2022/12/11 08:55:22;;;;;;;3.97;2.08;;;;;;;11.20;17.60;90959.69;5052066;28;20064;-75
2022/12/11 08:57:48;;;;;;;6.40;2.80;;;;;;;11.93;17.98;90971.25;5049764;28;20415;-74
2022/12/11 09:00:14;;;;;;;7.35;2.72;;;;;;;13.09;16.50;90966.88;5042075;28;20033;-72
2022/12/11 09:02:40;;;;;;;8.25;4.30;;;;;;;13.70;16.60;90964.94;5051940;28;20101;-73
2022/12/11 09:05:08;;;;;;;4.18;2.40;;;;;;;15.00;15.43;90969.06;5050328;28;20128;-73
2022/12/11 09:07:35;;;;;;;4.18;2.40;;;;;;;13.91;16.93;90981.16;5056810;28;20124;-73
2022/12/11 09:10:00;;;;;;;3.78;2.20;;;;;;;14.55;16.65;90979.16;5034512;28;20029;-73
2022/12/11 09:12:27;;;;;;;3.97;2.30;;;;;;;14.99;16.04;90978.84;5050684;28;20041;-73
2022/12/11 09:14:53;;;;;;;5.22;2.40;;;;;;;15.32;15.88;90976.75;5050813;28;20041;-73
2022/12/11 09:17:19;;;;;;;3.90;2.30;;;;;;;15.71;15.77;90984.56;5050598;28;20060;-73
2022/12/11 09:19:45;;;;;;;4.10;2.20;;;;;;;15.12;14.73;90987.34;5050374;28;20047;-74
2022/12/11 09:22:11;;;;;;;4.43;2.55;;;;;;;14.21;16.23;90983.34;5050625;28;20033;-73
2022/12/11 09:24:38;;;;;;;4.63;2.47;;;;;;;14.21;16.33;90970.16;5052030;28;20487;-73
2022/12/11 09:27:04;;;;;;;4.60;2.30;;;;;;;14.40;16.65;90989.72;5034075;28;20045;-73
2022/12/11 09:29:31;;;;;;;3.58;2.15;;;;;;;13.94;17.49;90985.00;5041413;28;20040;-74
2022/12/11 09:31:56;;;;;;;4.70;2.65;;;;;;;13.85;16.55;90985.19;5050457;28;20061;-74
2022/12/11 09:34:22;;;;;;;4.63;2.40;;;;;;;14.36;16.33;90979.09;5050219;28;20080;-74
2022/12/11 09:36:48;;;;;;;7.93;3.42;;;;;;;13.81;16.56;90970.44;5049577;28;20541;-74
2022/12/11 09:39:16;;;;;;;3.60;1.98;;;;;;;10.14;17.92;90982.69;5051202;28;20033;-73
2022/12/11 09:42:12;;;;;;;4.32;2.38;;;;;;;10.59;19.51;90987.25;5050575;28;20356;-74
2022/12/11 09:45:00;;;;;;;7.47;2.25;;;;;;;11.23;18.10;90978.13;5050976;28;20437;-73
2022/12/11 09:47:39;;;;;;;4.32;2.20;;;;;;;11.16;18.81;90985.00;5041125;28;20044;-73
2022/12/11 09:50:05;;;;;;;4.55;2.60;;;;;;;12.10;17.96;90976.25;5031777;28;20040;-74
2022/12/11 09:52:44;;;;;;;4.68;2.28;;;;;;;10.90;18.02;90970.34;5023338;28;20053;-74
2022/12/11 09:55:16;;;;;;;4.10;2.10;;;;;;;10.40;18.02;90985.13;5015836;28;20038;-73
2022/12/11 09:57:49;;;;;;;4.20;2.17;;;;;;;8.87;19.75;90978.28;5029706;28;20499;-73
2022/12/11 10:00:25;;;;;;;4.45;2.53;;;;;;;10.27;20.00;90982.72;5030134;28;20168;-73
2022/12/11 10:03:21;;;;;;;5.30;2.38;;;;;;;11.33;18.80;90974.31;5030675;28;20033;-73
2022/12/11 10:06:12;;;;;;;4.03;2.22;;;;;;;10.76;17.47;90980.31;5031160;28;20057;-73
2022/12/11 10:08:50;;;;;;;3.95;2.03;;;;;;;8.99;18.68;90976.84;5011271;28;20025;-73
2022/12/11 10:11:38;;;;;;;4.38;2.45;;;;;;;8.81;20.52;90963.09;5020517;28;20029;-73
2022/12/11 10:14:30;;;;;;;5.00;2.22;;;;;;;8.60;21.08;90962.97;5026111;28;20088;-73
2022/12/11 10:17:08;;;;;;;4.68;2.35;;;;;;;9.16;20.30;90971.56;5029816;28;20048;-73
2022/12/11 10:19:34;;;;;;;4.50;2.15;;;;;;;9.15;20.58;90972.66;5028587;28;20394;-73
2022/12/11 10:22:01;;;;;;;6.25;1.90;;;;;;;9.50;19.59;90965.41;5031105;28;20124;-73
2022/12/11 10:24:41;;;;;;;4.65;2.45;;;;;;;6.76;21.03;90972.38;5029459;28;20037;-73
2022/12/11 10:27:23;;;;;;;4.57;2.00;;;;;;;6.34;23.50;90974.44;5012796;28;20431;-73
2022/12/11 10:29:59;;;;;;;4.45;2.20;;;;;;;8.19;20.70;90969.44;5029945;28;20038;-73
2022/12/11 10:32:38;;;;;;;4.32;1.98;;;;;;;9.05;20.88;90957.31;5037809;28;20128;-73
2022/12/11 10:35:05;;;;;;;4.90;2.47;;;;;;;9.04;20.87;90963.63;5030291;28;20418;-73
2022/12/11 10:37:31;;;;;;;4.97;2.65;;;;;;;9.43;19.52;90951.31;5029698;28;20090;-73
2022/12/11 10:39:56;;;;;;;3.92;2.00;;;;;;;9.49;20.11;90956.03;5029109;28;20041;-73
2022/12/11 10:42:22;;;;;;;3.97;2.10;;;;;;;9.56;18.71;90960.78;5027804;28;20072;-73
2022/12/11 10:45:02;;;;;;;4.03;2.00;;;;;;;8.82;20.03;90973.22;5030267;28;20025;-73
2022/12/11 10:47:28;;;;;;;6.05;2.10;;;;;;;9.24;19.89;90962.94;5030673;28;20399;-73
2022/12/11 10:49:59;;;;;;;2.65;1.85;;;;;;;9.54;18.28;90953.25;5030678;28;20037;-73
2022/12/11 10:52:31;;;;;;;3.20;1.92;;;;;;;8.50;19.39;90948.44;5034217;28;20052;-73
2022/12/11 10:55:03;;;;;;;5.07;2.22;;;;;;;8.67;21.09;90973.69;5068108;28;20043;-73
2022/12/11 10:57:38;;;;;;;4.50;2.17;;;;;;;8.39;19.90;90961.00;5070126;28;20035;-73
2022/12/11 11:00:06;;;;;;;5.10;2.17;;;;;;;8.30;21.05;90971.44;5052429;28;20062;-73
2022/12/11 11:02:41;;;;;;;4.07;2.13;;;;;;;8.39;19.44;90968.81;5069542;28;20049;-73
2022/12/11 11:05:16;;;;;;;3.60;1.92;;;;;;;7.82;19.88;90972.38;5051157;28;20036;-73
2022/12/11 11:07:41;;;;;;;4.22;1.88;;;;;;;6.31;21.56;90969.84;5051308;28;20029;-73
2022/12/11 11:10:10;;;;;;;5.05;2.45;;;;;;;5.82;22.37;90972.22;5068131;28;20035;-74
2022/12/11 11:12:39;;;;;;;4.18;1.80;;;;;;;5.13;22.66;90979.34;5068685;28;20432;-73
2022/12/11 11:15:26;;;;;;;6.38;1.90;;;;;;;5.03;21.90;90977.72;5069389;28;20043;-73
2022/12/11 11:17:54;;;;;;;5.00;2.20;;;;;;;4.78;23.16;90976.38;5052190;28;20041;-73
2022/12/11 11:20:26;;;;;;;4.45;1.92;;;;;;;5.21;22.87;90982.03;5052018;28;20024;-73
2022/12/11 11:22:58;;;;;;;4.30;1.83;;;;;;;6.40;22.13;90975.84;5051115;28;20044;-73
2022/12/11 11:25:26;;;;;;;;;;;;;;;6.34;21.14;90982.22;5035556;28;20060;-74
2022/12/11 11:28:06;;;;;;;4.75;1.55;;;;;;;5.73;21.46;90970.59;5069615;28;20007;-74
2022/12/11 11:30:38;;;;;;;3.10;1.63;;;;;;;5.60;23.55;90972.16;5035300;28;20477;-73
2022/12/11 11:33:18;;;;;;;2.92;1.75;;;;;;;5.57;21.41;90967.56;5051619;28;20044;-73
2022/12/11 11:35:56;;;;;;;3.97;1.95;;;;;;;6.18;22.31;90968.84;5051168;28;20086;-73
2022/12/11 11:38:31;;;;;;;6.15;1.90;;;;;;;5.55;22.42;90965.25;5063566;28;20035;-74
2022/12/11 11:41:16;;;;;;;4.78;1.80;;;;;;;6.12;22.37;90966.66;5050190;28;20475;-74
2022/12/11 11:43:51;;;;;;;5.38;2.08;;;;;;;6.35;22.00;90965.59;5067458;28;20039;-74
2022/12/11 11:46:20;;;;;;;3.95;2.10;;;;;;;7.62;20.59;90958.09;5069107;28;20445;-74
2022/12/11 11:49:13;;;;;;;2.30;1.48;;;;;;;6.97;20.38;90948.44;5063023;28;20028;-74
2022/12/11 11:51:45;;;;;;;4.53;1.83;;;;;;;6.30;21.21;90959.72;5046705;28;20054;-74
2022/12/11 11:54:26;;;;;;;3.65;1.88;;;;;;;5.53;21.89;90953.63;5068424;28;20037;-74
2022/12/11 11:56:55;;;;;;;1.45;0.98;;;;;;;6.52;22.81;90953.75;5069660;28;20132;-75
2022/12/11 11:59:33;;;;;;;3.22;1.65;;;;;;;6.26;20.64;90954.38;5069476;28;20410;-74